sensor_id;sensor_type;location;lat;lon;timestamp;temperature;humidity
8463;DHT22;4268;52.506;13.462;2023-07-02T00:00:05;18.90;99.90
8463;DHT22;4268;52.506;13.462;2023-07-02T00:02:31;18.90;99.90
8463;DHT22;4268;52.506;13.462;2023-07-02T00:04:56;18.90;99.90
8463;DHT22;4268;52.506;13.462;2023-07-02T00:07:22;19.00;99.90
8463;DHT22;4268;52.506;13.462;2023-07-02T00:09:47;18.90;99.90
8463;DHT22;4268;52.506;13.462;2023-07-02T00:12:13;18.90;99.90
8463;DHT22;4268;52.506;13.462;2023-07-02T00:14:39;18.90;99.90
8463;DHT22;4268;52.506;13.462;2023-07-02T00:17:04;18.80;99.90
8463;DHT22;4268;52.506;13.462;2023-07-02T00:19:30;18.80;99.90
8463;DHT22;4268;52.506;13.462;2023-07-02T00:21:55;18.90;99.90
8463;DHT22;4268;52.506;13.462;2023-07-02T00:24:21;18.80;99.90
8463;DHT22;4268;52.506;13.462;2023-07-02T00:26:47;18.80;99.90
8463;DHT22;4268;52.506;13.462;2023-07-02T00:29:12;18.80;99.90
8463;DHT22;4268;52.506;13.462;2023-07-02T00:31:38;18.80;99.90
8463;DHT22;4268;52.506;13.462;2023-07-02T00:34:04;18.70;99.90
8463;DHT22;4268;52.506;13.462;2023-07-02T00:36:30;18.70;99.90
8463;DHT22;4268;52.506;13.462;2023-07-02T00:38:56;18.70;99.90
8463;DHT22;4268;52.506;13.462;2023-07-02T00:41:22;18.70;99.90
8463;DHT22;4268;52.506;13.462;2023-07-02T00:43:48;18.70;99.90
8463;DHT22;4268;52.506;13.462;2023-07-02T00:46:18;18.60;99.90
8463;DHT22;4268;52.506;13.462;2023-07-02T00:48:47;18.60;99.90
8463;DHT22;4268;52.506;13.462;2023-07-02T00:51:21;18.60;99.90
8463;DHT22;4268;52.506;13.462;2023-07-02T00:53:47;18.60;99.90
8463;DHT22;4268;52.506;13.462;2023-07-02T00:56:14;18.60;99.90
8463;DHT22;4268;52.506;13.462;2023-07-02T00:58:42;18.60;99.90
8463;DHT22;4268;52.506;13.462;2023-07-02T01:01:18;18.60;99.90
8463;DHT22;4268;52.506;13.462;2023-07-02T01:03:58;18.60;99.90
8463;DHT22;4268;52.506;13.462;2023-07-02T01:06:29;18.60;99.90
8463;DHT22;4268;52.506;13.462;2023-07-02T01:09:05;18.60;99.90
8463;DHT22;4268;52.506;13.462;2023-07-02T01:11:38;18.50;99.90
8463;DHT22;4268;52.506;13.462;2023-07-02T01:16:44;18.50;99.90
8463;DHT22;4268;52.506;13.462;2023-07-02T01:19:18;18.50;99.90
8463;DHT22;4268;52.506;13.462;2023-07-02T01:21:46;18.50;99.90
8463;DHT22;4268;52.506;13.462;2023-07-02T01:24:12;18.50;99.90
8463;DHT22;4268;52.506;13.462;2023-07-02T01:26:39;18.50;99.90
8463;DHT22;4268;52.506;13.462;2023-07-02T01:29:18;18.50;99.90
8463;DHT22;4268;52.506;13.462;2023-07-02T01:31:45;18.50;99.90
8463;DHT22;4268;52.506;13.462;2023-07-02T01:34:11;18.50;99.90
8463;DHT22;4268;52.506;13.462;2023-07-02T01:36:37;18.40;99.90
8463;DHT22;4268;52.506;13.462;2023-07-02T01:39:03;18.40;99.90
8463;DHT22;4268;52.506;13.462;2023-07-02T01:41:29;18.40;99.90
8463;DHT22;4268;52.506;13.462;2023-07-02T01:43:55;18.40;99.90
8463;DHT22;4268;52.506;13.462;2023-07-02T01:46:21;18.40;99.90
8463;DHT22;4268;52.506;13.462;2023-07-02T01:48:46;18.30;99.90
8463;DHT22;4268;52.506;13.462;2023-07-02T01:51:12;18.30;99.90
8463;DHT22;4268;52.506;13.462;2023-07-02T01:53:39;18.30;99.90
8463;DHT22;4268;52.506;13.462;2023-07-02T01:56:05;18.20;99.90
8463;DHT22;4268;52.506;13.462;2023-07-02T01:58:30;18.30;99.90
8463;DHT22;4268;52.506;13.462;2023-07-02T02:00:56;18.30;99.90
8463;DHT22;4268;52.506;13.462;2023-07-02T02:03:22;18.30;99.90
8463;DHT22;4268;52.506;13.462;2023-07-02T02:05:47;18.40;99.90
8463;DHT22;4268;52.506;13.462;2023-07-02T02:08:13;19.00;99.90
8463;DHT22;4268;52.506;13.462;2023-07-02T02:10:39;20.00;99.90
8463;DHT22;4268;52.506;13.462;2023-07-02T02:13:04;18.20;99.90
8463;DHT22;4268;52.506;13.462;2023-07-02T02:15:30;18.20;99.90
8463;DHT22;4268;52.506;13.462;2023-07-02T02:17:56;18.50;99.90
8463;DHT22;4268;52.506;13.462;2023-07-02T02:20:21;18.10;99.90
8463;DHT22;4268;52.506;13.462;2023-07-02T02:22:47;18.20;99.90
8463;DHT22;4268;52.506;13.462;2023-07-02T02:25:13;18.10;99.90
8463;DHT22;4268;52.506;13.462;2023-07-02T02:27:38;18.10;99.90
8463;DHT22;4268;52.506;13.462;2023-07-02T02:30:05;18.00;99.90
8463;DHT22;4268;52.506;13.462;2023-07-02T02:32:30;18.10;99.90
8463;DHT22;4268;52.506;13.462;2023-07-02T02:34:56;18.00;99.90
8463;DHT22;4268;52.506;13.462;2023-07-02T02:37:21;18.00;99.90
8463;DHT22;4268;52.506;13.462;2023-07-02T02:39:48;18.00;99.90
8463;DHT22;4268;52.506;13.462;2023-07-02T02:42:14;18.00;99.90
8463;DHT22;4268;52.506;13.462;2023-07-02T02:44:39;17.90;99.90
8463;DHT22;4268;52.506;13.462;2023-07-02T02:47:05;18.00;99.90
8463;DHT22;4268;52.506;13.462;2023-07-02T02:49:31;17.90;99.90
8463;DHT22;4268;52.506;13.462;2023-07-02T02:51:56;17.90;99.90
8463;DHT22;4268;52.506;13.462;2023-07-02T02:54:22;17.90;99.90
8463;DHT22;4268;52.506;13.462;2023-07-02T02:56:47;17.90;99.90
8463;DHT22;4268;52.506;13.462;2023-07-02T02:59:13;18.00;99.90
8463;DHT22;4268;52.506;13.462;2023-07-02T03:01:38;17.90;99.90
8463;DHT22;4268;52.506;13.462;2023-07-02T03:04:04;17.90;99.90
8463;DHT22;4268;52.506;13.462;2023-07-02T03:06:33;17.90;99.90
8463;DHT22;4268;52.506;13.462;2023-07-02T03:08:59;17.90;99.90
8463;DHT22;4268;52.506;13.462;2023-07-02T03:11:24;17.90;99.90
8463;DHT22;4268;52.506;13.462;2023-07-02T03:13:50;17.90;99.90
8463;DHT22;4268;52.506;13.462;2023-07-02T03:16:15;17.90;99.90
8463;DHT22;4268;52.506;13.462;2023-07-02T03:18:41;17.90;99.90
8463;DHT22;4268;52.506;13.462;2023-07-02T03:21:06;17.90;99.90
8463;DHT22;4268;52.506;13.462;2023-07-02T03:23:32;17.90;99.90
8463;DHT22;4268;52.506;13.462;2023-07-02T03:25:57;17.90;99.90
8463;DHT22;4268;52.506;13.462;2023-07-02T03:28:23;17.90;99.90
8463;DHT22;4268;52.506;13.462;2023-07-02T03:30:48;17.90;99.90
8463;DHT22;4268;52.506;13.462;2023-07-02T03:33:14;17.90;99.90
8463;DHT22;4268;52.506;13.462;2023-07-02T03:35:39;17.90;99.90
8463;DHT22;4268;52.506;13.462;2023-07-02T03:38:05;18.00;99.90
8463;DHT22;4268;52.506;13.462;2023-07-02T03:40:34;17.90;99.90
8463;DHT22;4268;52.506;13.462;2023-07-02T03:42:59;17.90;99.90
8463;DHT22;4268;52.506;13.462;2023-07-02T03:45:25;17.90;99.90
8463;DHT22;4268;52.506;13.462;2023-07-02T03:47:50;17.90;99.90
8463;DHT22;4268;52.506;13.462;2023-07-02T03:50:16;17.90;99.90
8463;DHT22;4268;52.506;13.462;2023-07-02T03:52:41;17.90;99.90
8463;DHT22;4268;52.506;13.462;2023-07-02T03:55:07;17.90;99.90
8463;DHT22;4268;52.506;13.462;2023-07-02T03:57:33;17.90;99.90
8463;DHT22;4268;52.506;13.462;2023-07-02T03:59:58;17.90;99.90
8463;DHT22;4268;52.506;13.462;2023-07-02T04:02:24;17.90;99.90
8463;DHT22;4268;52.506;13.462;2023-07-02T04:04:49;17.90;99.90
8463;DHT22;4268;52.506;13.462;2023-07-02T04:07:15;17.90;99.90
8463;DHT22;4268;52.506;13.462;2023-07-02T04:09:41;17.90;99.90
8463;DHT22;4268;52.506;13.462;2023-07-02T04:12:07;17.80;99.90
8463;DHT22;4268;52.506;13.462;2023-07-02T04:14:32;17.90;99.90
8463;DHT22;4268;52.506;13.462;2023-07-02T04:16:58;17.90;99.90
8463;DHT22;4268;52.506;13.462;2023-07-02T04:19:23;17.90;99.90
8463;DHT22;4268;52.506;13.462;2023-07-02T04:21:49;17.80;99.90
8463;DHT22;4268;52.506;13.462;2023-07-02T04:24:14;17.90;99.90
8463;DHT22;4268;52.506;13.462;2023-07-02T04:26:40;17.90;99.90
8463;DHT22;4268;52.506;13.462;2023-07-02T04:29:09;17.90;99.90
8463;DHT22;4268;52.506;13.462;2023-07-02T04:31:34;18.00;99.90
8463;DHT22;4268;52.506;13.462;2023-07-02T04:34:00;17.90;99.90
8463;DHT22;4268;52.506;13.462;2023-07-02T04:36:25;17.90;99.90
8463;DHT22;4268;52.506;13.462;2023-07-02T04:38:51;18.00;99.90
8463;DHT22;4268;52.506;13.462;2023-07-02T04:41:18;18.10;99.90
8463;DHT22;4268;52.506;13.462;2023-07-02T04:43:44;18.10;99.90
8463;DHT22;4268;52.506;13.462;2023-07-02T04:46:10;18.20;99.90
8463;DHT22;4268;52.506;13.462;2023-07-02T04:48:37;18.30;99.90
8463;DHT22;4268;52.506;13.462;2023-07-02T04:51:03;18.40;99.90
8463;DHT22;4268;52.506;13.462;2023-07-02T04:53:28;18.40;99.90
8463;DHT22;4268;52.506;13.462;2023-07-02T04:55:54;18.40;99.90
8463;DHT22;4268;52.506;13.462;2023-07-02T04:58:20;18.50;99.90
8463;DHT22;4268;52.506;13.462;2023-07-02T05:00:45;18.40;99.90
8463;DHT22;4268;52.506;13.462;2023-07-02T05:03:11;18.40;99.90
8463;DHT22;4268;52.506;13.462;2023-07-02T05:05:36;18.50;99.90
8463;DHT22;4268;52.506;13.462;2023-07-02T05:08:02;18.60;99.90
8463;DHT22;4268;52.506;13.462;2023-07-02T05:10:29;18.60;99.90
8463;DHT22;4268;52.506;13.462;2023-07-02T05:12:55;18.70;99.90
8463;DHT22;4268;52.506;13.462;2023-07-02T05:15:20;18.80;99.90
8463;DHT22;4268;52.506;13.462;2023-07-02T05:17:46;18.80;99.90
8463;DHT22;4268;52.506;13.462;2023-07-02T05:20:11;18.90;99.90
8463;DHT22;4268;52.506;13.462;2023-07-02T05:22:37;18.90;99.90
8463;DHT22;4268;52.506;13.462;2023-07-02T05:25:03;19.10;99.90
8463;DHT22;4268;52.506;13.462;2023-07-02T05:27:28;19.00;99.90
8463;DHT22;4268;52.506;13.462;2023-07-02T05:29:54;19.10;99.90
8463;DHT22;4268;52.506;13.462;2023-07-02T05:32:19;19.20;99.90
8463;DHT22;4268;52.506;13.462;2023-07-02T05:34:45;19.20;99.90
8463;DHT22;4268;52.506;13.462;2023-07-02T05:37:10;19.30;99.90
8463;DHT22;4268;52.506;13.462;2023-07-02T05:39:36;19.40;99.90
8463;DHT22;4268;52.506;13.462;2023-07-02T05:42:01;19.30;99.90
8463;DHT22;4268;52.506;13.462;2023-07-02T05:44:27;19.40;99.90
8463;DHT22;4268;52.506;13.462;2023-07-02T05:46:52;19.50;99.90
8463;DHT22;4268;52.506;13.462;2023-07-02T05:49:18;19.50;99.90
8463;DHT22;4268;52.506;13.462;2023-07-02T05:51:43;19.60;99.90
8463;DHT22;4268;52.506;13.462;2023-07-02T05:54:09;19.70;99.90
8463;DHT22;4268;52.506;13.462;2023-07-02T05:56:34;19.80;99.90
8463;DHT22;4268;52.506;13.462;2023-07-02T05:59:00;19.80;99.90
8463;DHT22;4268;52.506;13.462;2023-07-02T06:01:25;19.80;99.90
8463;DHT22;4268;52.506;13.462;2023-07-02T06:03:51;19.90;99.90
8463;DHT22;4268;52.506;13.462;2023-07-02T06:06:16;20.40;99.90
8463;DHT22;4268;52.506;13.462;2023-07-02T06:08:42;21.40;99.90
8463;DHT22;4268;52.506;13.462;2023-07-02T06:11:09;22.90;99.90
8463;DHT22;4268;52.506;13.462;2023-07-02T06:13:35;24.60;99.90
8463;DHT22;4268;52.506;13.462;2023-07-02T06:16:01;25.40;97.10
8463;DHT22;4268;52.506;13.462;2023-07-02T06:18:26;26.10;95.20
8463;DHT22;4268;52.506;13.462;2023-07-02T06:20:52;26.50;93.10
8463;DHT22;4268;52.506;13.462;2023-07-02T06:23:17;25.90;92.90
8463;DHT22;4268;52.506;13.462;2023-07-02T06:25:43;25.20;93.60
8463;DHT22;4268;52.506;13.462;2023-07-02T06:28:09;24.60;93.70
8463;DHT22;4268;52.506;13.462;2023-07-02T06:30:35;23.90;94.10
8463;DHT22;4268;52.506;13.462;2023-07-02T06:33:00;23.10;95.10
8463;DHT22;4268;52.506;13.462;2023-07-02T06:35:26;22.70;95.80
8463;DHT22;4268;52.506;13.462;2023-07-02T06:37:51;22.30;95.90
8463;DHT22;4268;52.506;13.462;2023-07-02T06:40:17;22.10;96.20
8463;DHT22;4268;52.506;13.462;2023-07-02T06:42:42;21.90;96.60
8463;DHT22;4268;52.506;13.462;2023-07-02T06:45:08;21.70;96.70
8463;DHT22;4268;52.506;13.462;2023-07-02T06:47:34;22.20;97.30
8463;DHT22;4268;52.506;13.462;2023-07-02T06:49:59;23.30;96.40
8463;DHT22;4268;52.506;13.462;2023-07-02T06:52:25;24.10;94.50
8463;DHT22;4268;52.506;13.462;2023-07-02T06:54:51;25.50;92.80
8463;DHT22;4268;52.506;13.462;2023-07-02T06:57:16;26.60;90.80
8463;DHT22;4268;52.506;13.462;2023-07-02T06:59:42;27.20;88.40
8463;DHT22;4268;52.506;13.462;2023-07-02T07:02:07;27.90;87.40
8463;DHT22;4268;52.506;13.462;2023-07-02T07:04:33;28.10;84.20
8463;DHT22;4268;52.506;13.462;2023-07-02T07:07:00;27.40;83.30
8463;DHT22;4268;52.506;13.462;2023-07-02T07:09:31;26.60;84.30
8463;DHT22;4268;52.506;13.462;2023-07-02T07:11:57;25.80;86.70
8463;DHT22;4268;52.506;13.462;2023-07-02T07:14:22;25.30;89.00
8463;DHT22;4268;52.506;13.462;2023-07-02T07:16:48;24.80;88.60
8463;DHT22;4268;52.506;13.462;2023-07-02T07:19:14;24.50;88.70
8463;DHT22;4268;52.506;13.462;2023-07-02T07:21:39;24.20;89.60
8463;DHT22;4268;52.506;13.462;2023-07-02T07:24:05;24.00;89.70
8463;DHT22;4268;52.506;13.462;2023-07-02T07:26:31;23.80;90.00
8463;DHT22;4268;52.506;13.462;2023-07-02T07:28:57;23.80;90.50
8463;DHT22;4268;52.506;13.462;2023-07-02T07:31:23;23.70;89.70
8463;DHT22;4268;52.506;13.462;2023-07-02T07:33:49;23.70;90.30
8463;DHT22;4268;52.506;13.462;2023-07-02T07:36:14;23.80;90.80
8463;DHT22;4268;52.506;13.462;2023-07-02T07:38:40;24.20;90.40
8463;DHT22;4268;52.506;13.462;2023-07-02T07:41:05;24.50;90.00
8463;DHT22;4268;52.506;13.462;2023-07-02T07:43:31;24.50;88.10
8463;DHT22;4268;52.506;13.462;2023-07-02T07:45:56;24.50;89.20
8463;DHT22;4268;52.506;13.462;2023-07-02T07:48:22;24.20;89.80
8463;DHT22;4268;52.506;13.462;2023-07-02T07:50:47;23.90;89.40
8463;DHT22;4268;52.506;13.462;2023-07-02T07:53:13;23.50;88.40
8463;DHT22;4268;52.506;13.462;2023-07-02T07:55:38;23.10;90.00
8463;DHT22;4268;52.506;13.462;2023-07-02T07:58:04;22.80;90.70
8463;DHT22;4268;52.506;13.462;2023-07-02T08:00:29;22.50;91.00
8463;DHT22;4268;52.506;13.462;2023-07-02T08:02:55;22.20;91.30
8463;DHT22;4268;52.506;13.462;2023-07-02T08:05:21;22.00;91.90
8463;DHT22;4268;52.506;13.462;2023-07-02T08:07:48;21.80;92.50
8463;DHT22;4268;52.506;13.462;2023-07-02T08:10:13;21.60;93.00
8463;DHT22;4268;52.506;13.462;2023-07-02T08:12:39;21.50;93.30
8463;DHT22;4268;52.506;13.462;2023-07-02T08:15:05;21.30;94.00
8463;DHT22;4268;52.506;13.462;2023-07-02T08:17:30;21.20;94.20
8463;DHT22;4268;52.506;13.462;2023-07-02T08:19:56;21.00;94.30
8463;DHT22;4268;52.506;13.462;2023-07-02T08:22:22;20.90;94.70
8463;DHT22;4268;52.506;13.462;2023-07-02T08:24:47;20.80;95.00
8463;DHT22;4268;52.506;13.462;2023-07-02T08:27:16;20.70;95.10
8463;DHT22;4268;52.506;13.462;2023-07-02T08:29:46;20.70;95.30
8463;DHT22;4268;52.506;13.462;2023-07-02T08:32:11;20.70;95.70
8463;DHT22;4268;52.506;13.462;2023-07-02T08:34:37;20.50;95.80
8463;DHT22;4268;52.506;13.462;2023-07-02T08:37:03;20.50;96.10
8463;DHT22;4268;52.506;13.462;2023-07-02T08:39:28;20.50;95.20
8463;DHT22;4268;52.506;13.462;2023-07-02T08:41:54;20.50;95.40
8463;DHT22;4268;52.506;13.462;2023-07-02T08:44:20;20.50;95.30
8463;DHT22;4268;52.506;13.462;2023-07-02T08:46:47;20.60;95.50
8463;DHT22;4268;52.506;13.462;2023-07-02T08:49:16;20.60;95.70
8463;DHT22;4268;52.506;13.462;2023-07-02T08:51:44;20.60;95.00
8463;DHT22;4268;52.506;13.462;2023-07-02T08:54:09;20.60;94.40
8463;DHT22;4268;52.506;13.462;2023-07-02T08:56:35;20.60;94.60
8463;DHT22;4268;52.506;13.462;2023-07-02T08:59:00;20.50;94.50
8463;DHT22;4268;52.506;13.462;2023-07-02T09:01:26;20.50;93.80
8463;DHT22;4268;52.506;13.462;2023-07-02T09:03:58;20.50;92.90
8463;DHT22;4268;52.506;13.462;2023-07-02T09:06:25;20.50;92.70
8463;DHT22;4268;52.506;13.462;2023-07-02T09:08:50;20.60;92.70
8463;DHT22;4268;52.506;13.462;2023-07-02T09:11:16;20.60;92.60
8463;DHT22;4268;52.506;13.462;2023-07-02T09:13:52;20.70;92.00
8463;DHT22;4268;52.506;13.462;2023-07-02T09:19:04;20.90;90.90
8463;DHT22;4268;52.506;13.462;2023-07-02T09:21:47;21.00;90.70
8463;DHT22;4268;52.506;13.462;2023-07-02T09:26:50;21.20;90.60
8463;DHT22;4268;52.506;13.462;2023-07-02T09:29:28;21.30;90.80
8463;DHT22;4268;52.506;13.462;2023-07-02T09:31:55;21.40;90.50
8463;DHT22;4268;52.506;13.462;2023-07-02T09:34:27;21.70;90.60
8463;DHT22;4268;52.506;13.462;2023-07-02T09:36:53;21.80;90.30
8463;DHT22;4268;52.506;13.462;2023-07-02T09:39:20;22.00;89.30
8463;DHT22;4268;52.506;13.462;2023-07-02T09:41:48;22.00;87.50
8463;DHT22;4268;52.506;13.462;2023-07-02T09:44:15;22.00;87.50
8463;DHT22;4268;52.506;13.462;2023-07-02T09:46:49;21.90;87.50
8463;DHT22;4268;52.506;13.462;2023-07-02T09:49:20;22.30;88.80
8463;DHT22;4268;52.506;13.462;2023-07-02T09:51:46;22.00;88.20
8463;DHT22;4268;52.506;13.462;2023-07-02T09:54:11;22.00;88.90
8463;DHT22;4268;52.506;13.462;2023-07-02T09:56:38;22.10;89.10
8463;DHT22;4268;52.506;13.462;2023-07-02T09:59:03;22.10;87.60
8463;DHT22;4268;52.506;13.462;2023-07-02T10:01:29;22.00;86.30
8463;DHT22;4268;52.506;13.462;2023-07-02T10:03:54;21.90;87.70
8463;DHT22;4268;52.506;13.462;2023-07-02T10:06:20;21.90;87.80
8463;DHT22;4268;52.506;13.462;2023-07-02T10:08:55;21.90;89.00
8463;DHT22;4268;52.506;13.462;2023-07-02T10:11:33;22.10;87.40
8463;DHT22;4268;52.506;13.462;2023-07-02T10:14:00;22.20;88.50
8463;DHT22;4268;52.506;13.462;2023-07-02T10:16:26;22.40;87.70
8463;DHT22;4268;52.506;13.462;2023-07-02T10:19:11;22.60;86.80
8463;DHT22;4268;52.506;13.462;2023-07-02T10:21:37;22.70;87.30
8463;DHT22;4268;52.506;13.462;2023-07-02T10:24:13;22.60;87.00
8463;DHT22;4268;52.506;13.462;2023-07-02T10:26:50;22.80;88.10
8463;DHT22;4268;52.506;13.462;2023-07-02T10:29:18;22.30;87.80
8463;DHT22;4268;52.506;13.462;2023-07-02T10:31:49;22.20;88.00
8463;DHT22;4268;52.506;13.462;2023-07-02T10:34:14;22.30;88.70
8463;DHT22;4268;52.506;13.462;2023-07-02T10:36:40;22.40;89.00
8463;DHT22;4268;52.506;13.462;2023-07-02T10:39:06;22.40;89.20
8463;DHT22;4268;52.506;13.462;2023-07-02T10:41:31;22.20;89.50
8463;DHT22;4268;52.506;13.462;2023-07-02T10:44:09;22.40;90.10
8463;DHT22;4268;52.506;13.462;2023-07-02T10:46:46;22.40;89.50
8463;DHT22;4268;52.506;13.462;2023-07-02T10:49:11;22.50;89.80
8463;DHT22;4268;52.506;13.462;2023-07-02T10:51:38;22.50;90.00
8463;DHT22;4268;52.506;13.462;2023-07-02T10:54:03;22.40;90.00
8463;DHT22;4268;52.506;13.462;2023-07-02T10:56:31;22.50;88.90
8463;DHT22;4268;52.506;13.462;2023-07-02T10:58:57;22.60;87.80
8463;DHT22;4268;52.506;13.462;2023-07-02T11:01:27;22.60;86.70
8463;DHT22;4268;52.506;13.462;2023-07-02T11:03:57;22.50;86.60
8463;DHT22;4268;52.506;13.462;2023-07-02T11:06:23;22.50;87.60
8463;DHT22;4268;52.506;13.462;2023-07-02T11:08:49;22.80;87.20
8463;DHT22;4268;52.506;13.462;2023-07-02T11:11:14;23.10;86.80
8463;DHT22;4268;52.506;13.462;2023-07-02T11:13:47;23.20;85.60
8463;DHT22;4268;52.506;13.462;2023-07-02T11:16:27;23.20;85.00
8463;DHT22;4268;52.506;13.462;2023-07-02T11:19:08;23.10;85.30
8463;DHT22;4268;52.506;13.462;2023-07-02T11:21:35;22.90;86.40
8463;DHT22;4268;52.506;13.462;2023-07-02T11:24:05;22.70;86.60
8463;DHT22;4268;52.506;13.462;2023-07-02T11:26:40;22.40;86.90
8463;DHT22;4268;52.506;13.462;2023-07-02T11:29:17;22.10;87.60
8463;DHT22;4268;52.506;13.462;2023-07-02T11:31:43;21.90;88.20
8463;DHT22;4268;52.506;13.462;2023-07-02T11:34:16;21.90;88.60
8463;DHT22;4268;52.506;13.462;2023-07-02T11:36:42;21.90;87.90
8463;DHT22;4268;52.506;13.462;2023-07-02T11:39:08;21.70;87.60
8463;DHT22;4268;52.506;13.462;2023-07-02T11:41:44;21.60;87.70
8463;DHT22;4268;52.506;13.462;2023-07-02T11:44:10;21.60;86.80
8463;DHT22;4268;52.506;13.462;2023-07-02T11:46:35;21.60;84.60
8463;DHT22;4268;52.506;13.462;2023-07-02T11:49:02;21.60;84.20
8463;DHT22;4268;52.506;13.462;2023-07-02T11:51:30;21.80;83.70
8463;DHT22;4268;52.506;13.462;2023-07-02T11:53:55;21.90;81.60
8463;DHT22;4268;52.506;13.462;2023-07-02T11:56:21;21.90;78.70
8463;DHT22;4268;52.506;13.462;2023-07-02T11:58:46;21.80;80.00
8463;DHT22;4268;52.506;13.462;2023-07-02T12:01:12;21.90;79.20
8463;DHT22;4268;52.506;13.462;2023-07-02T12:03:37;22.00;78.30
8463;DHT22;4268;52.506;13.462;2023-07-02T12:06:03;22.10;77.10
8463;DHT22;4268;52.506;13.462;2023-07-02T12:08:28;22.20;76.50
8463;DHT22;4268;52.506;13.462;2023-07-02T12:10:54;22.40;76.60
8463;DHT22;4268;52.506;13.462;2023-07-02T12:13:19;22.60;75.70
8463;DHT22;4268;52.506;13.462;2023-07-02T12:15:47;22.70;75.70
8463;DHT22;4268;52.506;13.462;2023-07-02T12:18:13;22.70;76.20
8463;DHT22;4268;52.506;13.462;2023-07-02T12:20:39;22.70;75.70
8463;DHT22;4268;52.506;13.462;2023-07-02T12:23:05;22.60;75.50
8463;DHT22;4268;52.506;13.462;2023-07-02T12:25:31;22.70;75.50
8463;DHT22;4268;52.506;13.462;2023-07-02T12:27:56;22.60;72.80
8463;DHT22;4268;52.506;13.462;2023-07-02T12:30:22;22.80;73.30
8463;DHT22;4268;52.506;13.462;2023-07-02T12:32:48;22.70;74.10
8463;DHT22;4268;52.506;13.462;2023-07-02T12:35:13;22.80;73.70
8463;DHT22;4268;52.506;13.462;2023-07-02T12:37:47;22.80;72.30
8463;DHT22;4268;52.506;13.462;2023-07-02T12:40:13;22.90;72.50
8463;DHT22;4268;52.506;13.462;2023-07-02T12:42:42;22.90;70.70
8463;DHT22;4268;52.506;13.462;2023-07-02T12:45:09;23.00;70.60
8463;DHT22;4268;52.506;13.462;2023-07-02T12:47:34;23.00;71.80
8463;DHT22;4268;52.506;13.462;2023-07-02T12:50:00;22.90;73.00
8463;DHT22;4268;52.506;13.462;2023-07-02T12:52:26;23.00;71.10
8463;DHT22;4268;52.506;13.462;2023-07-02T12:54:51;23.00;71.60
8463;DHT22;4268;52.506;13.462;2023-07-02T12:57:17;23.00;69.60
8463;DHT22;4268;52.506;13.462;2023-07-02T12:59:43;23.10;68.30
8463;DHT22;4268;52.506;13.462;2023-07-02T13:02:09;23.10;68.80
8463;DHT22;4268;52.506;13.462;2023-07-02T13:04:35;23.00;69.00
8463;DHT22;4268;52.506;13.462;2023-07-02T13:07:00;23.00;69.70
8463;DHT22;4268;52.506;13.462;2023-07-02T13:09:26;23.00;70.20
8463;DHT22;4268;52.506;13.462;2023-07-02T13:11:51;23.30;70.80
8463;DHT22;4268;52.506;13.462;2023-07-02T13:14:17;23.30;71.20
8463;DHT22;4268;52.506;13.462;2023-07-02T13:16:42;23.30;70.80
8463;DHT22;4268;52.506;13.462;2023-07-02T13:19:08;23.10;69.30
8463;DHT22;4268;52.506;13.462;2023-07-02T13:21:33;22.90;69.70
8463;DHT22;4268;52.506;13.462;2023-07-02T13:23:59;23.00;70.00
8463;DHT22;4268;52.506;13.462;2023-07-02T13:26:24;23.00;70.30
8463;DHT22;4268;52.506;13.462;2023-07-02T13:28:50;23.10;69.60
8463;DHT22;4268;52.506;13.462;2023-07-02T13:31:15;23.00;69.00
8463;DHT22;4268;52.506;13.462;2023-07-02T13:33:42;23.00;69.40
8463;DHT22;4268;52.506;13.462;2023-07-02T13:36:08;23.10;70.00
8463;DHT22;4268;52.506;13.462;2023-07-02T13:38:34;23.10;69.40
8463;DHT22;4268;52.506;13.462;2023-07-02T13:40:59;23.00;69.20
8463;DHT22;4268;52.506;13.462;2023-07-02T13:43:25;23.00;69.80
8463;DHT22;4268;52.506;13.462;2023-07-02T13:45:51;24.60;71.70
8463;DHT22;4268;52.506;13.462;2023-07-02T13:48:16;23.00;70.20
8463;DHT22;4268;52.506;13.462;2023-07-02T13:50:42;23.00;70.30
8463;DHT22;4268;52.506;13.462;2023-07-02T13:53:08;23.20;70.10
8463;DHT22;4268;52.506;13.462;2023-07-02T13:55:34;23.20;69.60
8463;DHT22;4268;52.506;13.462;2023-07-02T13:58:00;23.00;68.80
8463;DHT22;4268;52.506;13.462;2023-07-02T14:00:29;23.00;69.00
8463;DHT22;4268;52.506;13.462;2023-07-02T14:02:56;23.00;68.50
8463;DHT22;4268;52.506;13.462;2023-07-02T14:05:22;22.90;68.20
8463;DHT22;4268;52.506;13.462;2023-07-02T14:07:48;23.30;68.50
8463;DHT22;4268;52.506;13.462;2023-07-02T14:10:14;23.10;67.90
8463;DHT22;4268;52.506;13.462;2023-07-02T14:12:41;23.30;67.40
8463;DHT22;4268;52.506;13.462;2023-07-02T14:15:08;24.00;67.50
8463;DHT22;4268;52.506;13.462;2023-07-02T14:17:34;23.30;66.60
8463;DHT22;4268;52.506;13.462;2023-07-02T14:19:59;22.90;66.30
8463;DHT22;4268;52.506;13.462;2023-07-02T14:22:25;23.20;66.30
8463;DHT22;4268;52.506;13.462;2023-07-02T14:24:50;23.20;66.20
8463;DHT22;4268;52.506;13.462;2023-07-02T14:27:16;23.00;66.30
8463;DHT22;4268;52.506;13.462;2023-07-02T14:29:41;23.00;66.30
8463;DHT22;4268;52.506;13.462;2023-07-02T14:32:07;23.10;66.60
8463;DHT22;4268;52.506;13.462;2023-07-02T14:34:33;23.30;67.30
8463;DHT22;4268;52.506;13.462;2023-07-02T14:36:59;24.00;68.30
8463;DHT22;4268;52.506;13.462;2023-07-02T14:39:26;23.20;67.40
8463;DHT22;4268;52.506;13.462;2023-07-02T14:41:51;22.00;66.30
8463;DHT22;4268;52.506;13.462;2023-07-02T14:44:17;23.20;68.00
8463;DHT22;4268;52.506;13.462;2023-07-02T14:46:43;23.30;67.40
8463;DHT22;4268;52.506;13.462;2023-07-02T14:49:09;23.10;65.60
8463;DHT22;4268;52.506;13.462;2023-07-02T14:51:36;24.20;66.10
8463;DHT22;4268;52.506;13.462;2023-07-02T14:54:01;23.00;65.20
8463;DHT22;4268;52.506;13.462;2023-07-02T14:56:29;22.90;65.20
8463;DHT22;4268;52.506;13.462;2023-07-02T14:58:55;23.00;64.10
8463;DHT22;4268;52.506;13.462;2023-07-02T15:01:21;23.10;63.60
8463;DHT22;4268;52.506;13.462;2023-07-02T15:03:46;23.20;64.40
8463;DHT22;4268;52.506;13.462;2023-07-02T15:06:14;23.20;64.00
8463;DHT22;4268;52.506;13.462;2023-07-02T15:08:40;23.00;63.20
8463;DHT22;4268;52.506;13.462;2023-07-02T15:11:05;23.00;63.40
8463;DHT22;4268;52.506;13.462;2023-07-02T15:13:31;23.00;64.20
8463;DHT22;4268;52.506;13.462;2023-07-02T15:15:57;22.90;64.30
8463;DHT22;4268;52.506;13.462;2023-07-02T15:18:23;22.70;64.50
8463;DHT22;4268;52.506;13.462;2023-07-02T15:20:52;22.60;65.30
8463;DHT22;4268;52.506;13.462;2023-07-02T15:23:22;22.50;65.20
8463;DHT22;4268;52.506;13.462;2023-07-02T15:25:59;22.50;64.70
8463;DHT22;4268;52.506;13.462;2023-07-02T15:28:26;22.50;65.10
8463;DHT22;4268;52.506;13.462;2023-07-02T15:30:57;22.70;65.30
8463;DHT22;4268;52.506;13.462;2023-07-02T15:33:23;22.70;65.30
8463;DHT22;4268;52.506;13.462;2023-07-02T15:35:50;22.80;65.10
8463;DHT22;4268;52.506;13.462;2023-07-02T15:38:19;22.80;65.30
8463;DHT22;4268;52.506;13.462;2023-07-02T15:40:47;22.80;65.50
8463;DHT22;4268;52.506;13.462;2023-07-02T15:43:12;22.80;65.70
8463;DHT22;4268;52.506;13.462;2023-07-02T15:45:38;22.80;65.10
8463;DHT22;4268;52.506;13.462;2023-07-02T15:48:04;23.50;65.90